KZR855 UAAA-UACC
Flight info
| Callsign | KZR855 |
|---|---|
| Flight time | 1h 29m |
| Altitude | 36000 |
| Route | ETEDA1B ETEDA W333 BANOS BANOS1G |
| Aircraft | A20N/M-SDE2E3FGHIRWXY/LB1 |
Departure
| Time | 2026-05-05 14:34 |
|---|---|
| Airport | Almaty International Airport (UAAA) |
Arrival
| Time | 2026-05-05 16:03 |
|---|---|
| Airport | Nursultan Nazarbayev International Airport (UACC) |
| Time | Latitude | Longitude | Altitude | Speed | Heading |
|---|---|---|---|---|---|
| 2026-05-05 14:27 | 43.34699 | 77.01366 | 2231 ft | 2 kts | 245° |
| 2026-05-05 14:27 | 43.34705 | 77.01386 | 2231 ft | 2 kts | 245° |
| 2026-05-05 14:27 | 43.34710 | 77.01405 | 2231 ft | 2 kts | 275° |
| 2026-05-05 14:28 | 43.34707 | 77.01424 | 2232 ft | 2 kts | 282° |
| 2026-05-05 14:28 | 43.34704 | 77.01445 | 2232 ft | 2 kts | 282° |
| 2026-05-05 14:28 | 43.34702 | 77.01457 | 2232 ft | 2 kts | 282° |
| 2026-05-05 14:28 | 43.34703 | 77.01476 | 2232 ft | 0 kts | 249° |
| 2026-05-05 14:29 | 43.34705 | 77.01484 | 2232 ft | 1 kts | 244° |
| 2026-05-05 14:29 | 43.34706 | 77.01486 | 2232 ft | 0 kts | 245° |
| 2026-05-05 14:31 | 43.34705 | 77.01484 | 2232 ft | 1 kts | 245° |
| 2026-05-05 14:31 | 43.34691 | 77.01453 | 2232 ft | 5 kts | 220° |
| 2026-05-05 14:31 | 43.34642 | 77.01458 | 2233 ft | 8 kts | 163° |
| 2026-05-05 14:32 | 43.34576 | 77.01474 | 2236 ft | 10 kts | 160° |
| 2026-05-05 14:32 | 43.34499 | 77.01515 | 2238 ft | 13 kts | 154° |
| 2026-05-05 14:32 | 43.34407 | 77.01576 | 2239 ft | 16 kts | 154° |
| 2026-05-05 14:32 | 43.34293 | 77.01647 | 2240 ft | 19 kts | 156° |
| 2026-05-05 14:33 | 43.34174 | 77.01733 | 2242 ft | 16 kts | 138° |
| 2026-05-05 14:33 | 43.34183 | 77.01870 | 2243 ft | 21 kts | 60° |
| 2026-05-05 14:33 | 43.34414 | 77.02341 | 2241 ft | 95 kts | 55° |
| 2026-05-05 14:33 | 43.34921 | 77.03352 | 2237 ft | 157 kts | 56° |
| 2026-05-05 14:34 | 43.35590 | 77.04689 | 2576 ft | 177 kts | 57° |
| 2026-05-05 14:34 | 43.36293 | 77.06095 | 3166 ft | 184 kts | 57° |
| 2026-05-05 14:34 | 43.37020 | 77.07539 | 3891 ft | 185 kts | 56° |
| 2026-05-05 14:34 | 43.37773 | 77.08987 | 4432 ft | 194 kts | 56° |
| 2026-05-05 14:35 | 43.38590 | 77.10546 | 4869 ft | 209 kts | 55° |
| 2026-05-05 14:35 | 43.39473 | 77.12234 | 5259 ft | 229 kts | 55° |
| 2026-05-05 14:35 | 43.40449 | 77.14106 | 5626 ft | 252 kts | 55° |
| 2026-05-05 14:35 | 43.41657 | 77.15932 | 6074 ft | 271 kts | 33° |
| 2026-05-05 14:36 | 43.43482 | 77.16696 | 6721 ft | 283 kts | 359° |
| 2026-05-05 14:36 | 43.45370 | 77.15981 | 7575 ft | 285 kts | 333° |
| 2026-05-05 14:36 | 43.47076 | 77.14604 | 8423 ft | 289 kts | 328° |
| 2026-05-05 14:36 | 43.48790 | 77.13150 | 9250 ft | 293 kts | 329° |
| 2026-05-05 14:37 | 43.50559 | 77.11731 | 10054 ft | 297 kts | 331° |
| 2026-05-05 14:37 | 43.52359 | 77.10368 | 10703 ft | 304 kts | 332° |
| 2026-05-05 14:37 | 43.54293 | 77.08964 | 11109 ft | 322 kts | 333° |
| 2026-05-05 14:37 | 43.56298 | 77.07547 | 11656 ft | 332 kts | 333° |
| 2026-05-05 14:38 | 43.58384 | 77.06094 | 12442 ft | 335 kts | 334° |
| 2026-05-05 14:38 | 43.60468 | 77.04652 | 13227 ft | 338 kts | 334° |
| 2026-05-05 14:38 | 43.62571 | 77.03201 | 13988 ft | 342 kts | 334° |
| 2026-05-05 14:38 | 43.64705 | 77.01731 | 14694 ft | 347 kts | 334° |
| 2026-05-05 14:39 | 43.66893 | 77.00226 | 15393 ft | 351 kts | 334° |
| 2026-05-05 14:39 | 43.69084 | 76.98718 | 16084 ft | 355 kts | 334° |
| 2026-05-05 14:39 | 43.71293 | 76.97199 | 16780 ft | 359 kts | 334° |
| 2026-05-05 14:39 | 43.73533 | 76.95657 | 17450 ft | 362 kts | 334° |
| 2026-05-05 14:40 | 43.75801 | 76.94094 | 18112 ft | 366 kts | 334° |
| 2026-05-05 14:40 | 43.78090 | 76.92516 | 18775 ft | 370 kts | 334° |
| 2026-05-05 14:40 | 43.80389 | 76.90930 | 19415 ft | 373 kts | 334° |
| 2026-05-05 14:40 | 43.82709 | 76.89327 | 20075 ft | 375 kts | 334° |
| 2026-05-05 14:41 | 43.85065 | 76.87698 | 20722 ft | 378 kts | 334° |
| 2026-05-05 14:41 | 43.87407 | 76.86077 | 21365 ft | 381 kts | 334° |
| 2026-05-05 14:41 | 43.89794 | 76.84423 | 22009 ft | 383 kts | 334° |
| 2026-05-05 14:41 | 43.92181 | 76.82769 | 22628 ft | 386 kts | 334° |
| 2026-05-05 14:42 | 43.94585 | 76.81100 | 23227 ft | 389 kts | 334° |
| 2026-05-05 14:42 | 43.96991 | 76.79429 | 23823 ft | 391 kts | 334° |
| 2026-05-05 14:42 | 43.99422 | 76.77740 | 24391 ft | 394 kts | 334° |
| 2026-05-05 14:42 | 44.01876 | 76.76032 | 24929 ft | 398 kts | 334° |
| 2026-05-05 14:43 | 44.04382 | 76.74284 | 25456 ft | 400 kts | 334° |
| 2026-05-05 14:43 | 44.06868 | 76.72549 | 25971 ft | 403 kts | 334° |
| 2026-05-05 14:43 | 44.09370 | 76.70802 | 26478 ft | 405 kts | 334° |
| 2026-05-05 14:43 | 44.11892 | 76.69038 | 26968 ft | 408 kts | 334° |
| 2026-05-05 14:44 | 44.14413 | 76.67274 | 27438 ft | 411 kts | 334° |
| 2026-05-05 14:44 | 44.16966 | 76.65486 | 27894 ft | 413 kts | 334° |
| 2026-05-05 14:44 | 44.19543 | 76.63680 | 28336 ft | 415 kts | 334° |
| 2026-05-05 14:44 | 44.22125 | 76.61869 | 28752 ft | 417 kts | 334° |
| 2026-05-05 14:45 | 44.24721 | 76.60045 | 29149 ft | 420 kts | 334° |
| 2026-05-05 14:45 | 44.27325 | 76.58212 | 29539 ft | 421 kts | 334° |
| 2026-05-05 14:45 | 44.29934 | 76.56377 | 29918 ft | 423 kts | 334° |
| 2026-05-05 14:45 | 44.32579 | 76.54517 | 30283 ft | 425 kts | 334° |
| 2026-05-05 14:46 | 44.35239 | 76.52796 | 30628 ft | 426 kts | 337° |
| 2026-05-05 14:46 | 44.37976 | 76.51177 | 31014 ft | 427 kts | 338° |
| 2026-05-05 14:46 | 44.40700 | 76.49593 | 31477 ft | 425 kts | 338° |
| 2026-05-05 14:46 | 44.43428 | 76.48007 | 31940 ft | 423 kts | 338° |
| 2026-05-05 14:47 | 44.46105 | 76.46448 | 32379 ft | 421 kts | 338° |
| 2026-05-05 14:47 | 44.48798 | 76.44876 | 32788 ft | 420 kts | 338° |
| 2026-05-05 14:47 | 44.51506 | 76.43291 | 33180 ft | 419 kts | 338° |
| 2026-05-05 14:47 | 44.54147 | 76.41743 | 33564 ft | 417 kts | 338° |
| 2026-05-05 14:48 | 44.56815 | 76.40179 | 33949 ft | 416 kts | 338° |
| 2026-05-05 14:48 | 44.59502 | 76.38602 | 34307 ft | 415 kts | 338° |
| 2026-05-05 14:48 | 44.62135 | 76.37054 | 34581 ft | 415 kts | 338° |
| 2026-05-05 14:48 | 44.64790 | 76.35493 | 34814 ft | 416 kts | 338° |
| 2026-05-05 14:49 | 44.67458 | 76.33922 | 35032 ft | 417 kts | 338° |
| 2026-05-05 14:49 | 44.70117 | 76.32352 | 35255 ft | 417 kts | 338° |
| 2026-05-05 14:49 | 44.72792 | 76.30774 | 35482 ft | 417 kts | 338° |
| 2026-05-05 14:49 | 44.75459 | 76.29198 | 35683 ft | 418 kts | 337° |
| 2026-05-05 14:50 | 44.78169 | 76.27594 | 35890 ft | 418 kts | 337° |
| 2026-05-05 14:50 | 44.80846 | 76.26009 | 36079 ft | 419 kts | 337° |
| 2026-05-05 14:50 | 44.86204 | 76.22830 | 36118 ft | 419 kts | 337° |
| 2026-05-05 14:51 | 44.91551 | 76.19651 | 36118 ft | 420 kts | 337° |
| 2026-05-05 14:51 | 44.96936 | 76.16444 | 36121 ft | 421 kts | 337° |
| 2026-05-05 14:52 | 45.02317 | 76.13232 | 36120 ft | 421 kts | 337° |
| 2026-05-05 14:52 | 45.07687 | 76.10020 | 36120 ft | 421 kts | 337° |
| 2026-05-05 14:53 | 45.13086 | 76.06784 | 36121 ft | 420 kts | 337° |
| 2026-05-05 14:53 | 45.18439 | 76.03571 | 36125 ft | 419 kts | 337° |
| 2026-05-05 14:54 | 45.23801 | 76.00343 | 36123 ft | 420 kts | 337° |
| 2026-05-05 14:54 | 45.29160 | 75.97111 | 36126 ft | 420 kts | 337° |
| 2026-05-05 14:55 | 45.34514 | 75.93876 | 36126 ft | 420 kts | 337° |
| 2026-05-05 14:55 | 45.39891 | 75.90620 | 36127 ft | 420 kts | 337° |
| 2026-05-05 14:56 | 45.45236 | 75.87376 | 36128 ft | 419 kts | 337° |
| 2026-05-05 14:56 | 45.50580 | 75.84127 | 36128 ft | 418 kts | 337° |
| 2026-05-05 14:57 | 45.55909 | 75.80879 | 36128 ft | 418 kts | 337° |
| 2026-05-05 14:57 | 45.61256 | 75.77612 | 36129 ft | 419 kts | 337° |
| 2026-05-05 14:58 | 45.66603 | 75.74337 | 36131 ft | 420 kts | 337° |
| 2026-05-05 14:58 | 45.71938 | 75.71064 | 36133 ft | 419 kts | 337° |
| 2026-05-05 14:59 | 45.77277 | 75.67793 | 36134 ft | 419 kts | 337° |
| 2026-05-05 14:59 | 45.82606 | 75.64520 | 36133 ft | 417 kts | 337° |
| 2026-05-05 15:00 | 45.87048 | 75.61784 | 36134 ft | 417 kts | 337° |
| 2026-05-05 15:00 | 45.93274 | 75.57938 | 36135 ft | 418 kts | 337° |
| 2026-05-05 15:01 | 45.98592 | 75.54645 | 36138 ft | 418 kts | 336° |
| 2026-05-05 15:01 | 46.03911 | 75.51344 | 36141 ft | 418 kts | 336° |
| 2026-05-05 15:02 | 46.09230 | 75.48035 | 36140 ft | 417 kts | 336° |
| 2026-05-05 15:02 | 46.14572 | 75.44705 | 36147 ft | 418 kts | 336° |
| 2026-05-05 15:03 | 46.19889 | 75.41383 | 36160 ft | 418 kts | 336° |
| 2026-05-05 15:03 | 46.25243 | 75.38046 | 36159 ft | 419 kts | 336° |
| 2026-05-05 15:04 | 46.30553 | 75.34755 | 36156 ft | 419 kts | 336° |
| 2026-05-05 15:04 | 46.35912 | 75.31421 | 36163 ft | 419 kts | 335° |
| 2026-05-05 15:05 | 46.43924 | 75.26419 | 36163 ft | 419 kts | 335° |
| 2026-05-05 15:06 | 46.49264 | 75.23075 | 36160 ft | 419 kts | 335° |
| 2026-05-05 15:06 | 46.54588 | 75.19733 | 36163 ft | 419 kts | 335° |
| 2026-05-05 15:07 | 46.59907 | 75.16388 | 36161 ft | 419 kts | 335° |
| 2026-05-05 15:07 | 46.65271 | 75.13004 | 36162 ft | 419 kts | 335° |
| 2026-05-05 15:08 | 46.70597 | 75.09639 | 36160 ft | 419 kts | 335° |
| 2026-05-05 15:08 | 46.75938 | 75.06258 | 36159 ft | 419 kts | 335° |
| 2026-05-05 15:09 | 46.81256 | 75.02880 | 36151 ft | 420 kts | 335° |
| 2026-05-05 15:09 | 46.86581 | 74.99493 | 36151 ft | 420 kts | 335° |
| 2026-05-05 15:10 | 46.92021 | 74.96338 | 36154 ft | 420 kts | 338° |
| 2026-05-05 15:10 | 46.97450 | 74.93363 | 36157 ft | 420 kts | 338° |
| 2026-05-05 15:11 | 47.02925 | 74.90352 | 36154 ft | 420 kts | 338° |
| 2026-05-05 15:11 | 47.08391 | 74.87332 | 36165 ft | 420 kts | 338° |
| 2026-05-05 15:12 | 47.13842 | 74.84313 | 36166 ft | 420 kts | 338° |
| 2026-05-05 15:12 | 47.19314 | 74.81276 | 36172 ft | 420 kts | 338° |
| 2026-05-05 15:13 | 47.24752 | 74.78250 | 36181 ft | 420 kts | 338° |
| 2026-05-05 15:13 | 47.30183 | 74.75221 | 36181 ft | 419 kts | 338° |
| 2026-05-05 15:14 | 47.35643 | 74.72168 | 36183 ft | 418 kts | 338° |
| 2026-05-05 15:14 | 47.41066 | 74.69128 | 36189 ft | 418 kts | 338° |
| 2026-05-05 15:15 | 47.46471 | 74.66091 | 36194 ft | 419 kts | 338° |
| 2026-05-05 15:15 | 47.51902 | 74.63031 | 36193 ft | 419 kts | 338° |
| 2026-05-05 15:16 | 47.57344 | 74.59978 | 36188 ft | 419 kts | 338° |
| 2026-05-05 15:16 | 47.62776 | 74.56943 | 36190 ft | 419 kts | 338° |
| 2026-05-05 15:17 | 47.68219 | 74.53889 | 36193 ft | 419 kts | 338° |
| 2026-05-05 15:17 | 47.73655 | 74.50832 | 36193 ft | 419 kts | 338° |
| 2026-05-05 15:18 | 47.79090 | 74.47765 | 36198 ft | 419 kts | 338° |
| 2026-05-05 15:18 | 47.84530 | 74.44688 | 36192 ft | 419 kts | 338° |
| 2026-05-05 15:19 | 47.89945 | 74.41619 | 36200 ft | 419 kts | 337° |
| 2026-05-05 15:19 | 47.95412 | 74.38513 | 36200 ft | 419 kts | 337° |
| 2026-05-05 15:20 | 48.00825 | 74.35429 | 36205 ft | 420 kts | 337° |
| 2026-05-05 15:20 | 48.06286 | 74.32309 | 36209 ft | 420 kts | 336° |
| 2026-05-05 15:21 | 48.11705 | 74.29208 | 36204 ft | 419 kts | 336° |
| 2026-05-05 15:21 | 48.17162 | 74.26107 | 36208 ft | 420 kts | 336° |
| 2026-05-05 15:22 | 48.22620 | 74.23028 | 36214 ft | 420 kts | 336° |
| 2026-05-05 15:22 | 48.28062 | 74.19946 | 36214 ft | 420 kts | 336° |
| 2026-05-05 15:23 | 48.33521 | 74.16844 | 36210 ft | 421 kts | 336° |
| 2026-05-05 15:23 | 48.38966 | 74.13740 | 36208 ft | 421 kts | 336° |
| 2026-05-05 15:24 | 48.44433 | 74.10616 | 36209 ft | 421 kts | 336° |
| 2026-05-05 15:24 | 48.49903 | 74.07483 | 36212 ft | 421 kts | 336° |
| 2026-05-05 15:25 | 48.55355 | 74.04353 | 36213 ft | 420 kts | 336° |
| 2026-05-05 15:25 | 48.60789 | 74.01226 | 36206 ft | 421 kts | 336° |
| 2026-05-05 15:26 | 48.66272 | 73.98064 | 36208 ft | 421 kts | 336° |
| 2026-05-05 15:26 | 48.71719 | 73.94914 | 36207 ft | 422 kts | 336° |
| 2026-05-05 15:27 | 48.77182 | 73.91749 | 36202 ft | 423 kts | 336° |
| 2026-05-05 15:27 | 48.82652 | 73.88570 | 36204 ft | 422 kts | 336° |
| 2026-05-05 15:28 | 48.88105 | 73.85393 | 36204 ft | 422 kts | 336° |
| 2026-05-05 15:28 | 48.93577 | 73.82198 | 36203 ft | 422 kts | 336° |
| 2026-05-05 15:29 | 48.99052 | 73.78994 | 36204 ft | 422 kts | 336° |
| 2026-05-05 15:29 | 49.04528 | 73.75783 | 36198 ft | 423 kts | 336° |
| 2026-05-05 15:30 | 49.10004 | 73.72562 | 36193 ft | 424 kts | 335° |
| 2026-05-05 15:30 | 49.15459 | 73.69338 | 36181 ft | 424 kts | 335° |
| 2026-05-05 15:31 | 49.20932 | 73.66099 | 36178 ft | 423 kts | 336° |
| 2026-05-05 15:31 | 49.26438 | 73.62833 | 36175 ft | 423 kts | 335° |
| 2026-05-05 15:32 | 49.31872 | 73.59602 | 36167 ft | 422 kts | 335° |
| 2026-05-05 15:32 | 49.37333 | 73.56333 | 35551 ft | 426 kts | 335° |
| 2026-05-05 15:32 | 49.40126 | 73.54647 | 34608 ft | 436 kts | 335° |
| 2026-05-05 15:33 | 49.42950 | 73.52945 | 33659 ft | 441 kts | 335° |
| 2026-05-05 15:33 | 49.45781 | 73.51240 | 32811 ft | 443 kts | 335° |
| 2026-05-05 15:33 | 49.48664 | 73.49505 | 31966 ft | 444 kts | 335° |
| 2026-05-05 15:33 | 49.51524 | 73.47783 | 31099 ft | 446 kts | 336° |
| 2026-05-05 15:34 | 49.54436 | 73.46027 | 30207 ft | 448 kts | 336° |
| 2026-05-05 15:34 | 49.57313 | 73.44291 | 29571 ft | 444 kts | 336° |
| 2026-05-05 15:34 | 49.60158 | 73.42577 | 28896 ft | 434 kts | 336° |
| 2026-05-05 15:34 | 49.62922 | 73.40909 | 27798 ft | 429 kts | 336° |
| 2026-05-05 15:35 | 49.65653 | 73.39254 | 26608 ft | 425 kts | 336° |
| 2026-05-05 15:35 | 49.68303 | 73.37324 | 25429 ft | 415 kts | 326° |
| 2026-05-05 15:35 | 49.70605 | 73.34766 | 24297 ft | 405 kts | 315° |
| 2026-05-05 15:35 | 49.72659 | 73.31896 | 23214 ft | 398 kts | 313° |
| 2026-05-05 15:36 | 49.74648 | 73.29012 | 22132 ft | 392 kts | 313° |
| 2026-05-05 15:36 | 49.76648 | 73.26099 | 21007 ft | 387 kts | 313° |
| 2026-05-05 15:36 | 49.78576 | 73.23296 | 20045 ft | 379 kts | 313° |
| 2026-05-05 15:36 | 49.80456 | 73.20572 | 19408 ft | 365 kts | 313° |
| 2026-05-05 15:37 | 49.82312 | 73.17886 | 19134 ft | 357 kts | 313° |
| 2026-05-05 15:37 | 49.84137 | 73.15241 | 19082 ft | 354 kts | 313° |
| 2026-05-05 15:37 | 49.85925 | 73.12644 | 19080 ft | 352 kts | 313° |
| 2026-05-05 15:37 | 49.87716 | 73.10044 | 19091 ft | 350 kts | 313° |
| 2026-05-05 15:38 | 49.89491 | 73.07468 | 19102 ft | 350 kts | 313° |
| 2026-05-05 15:38 | 49.91266 | 73.04887 | 19106 ft | 349 kts | 313° |
| 2026-05-05 15:38 | 49.93047 | 73.02297 | 19103 ft | 349 kts | 313° |
| 2026-05-05 15:38 | 49.94822 | 72.99713 | 19101 ft | 349 kts | 313° |
| 2026-05-05 15:39 | 49.96592 | 72.97134 | 19102 ft | 348 kts | 313° |
| 2026-05-05 15:39 | 49.98380 | 72.94528 | 19102 ft | 348 kts | 313° |
| 2026-05-05 15:39 | 50.00140 | 72.91959 | 19104 ft | 348 kts | 313° |
| 2026-05-05 15:39 | 50.01899 | 72.89388 | 19105 ft | 347 kts | 313° |
| 2026-05-05 15:40 | 50.03621 | 72.86874 | 19082 ft | 333 kts | 312° |
| 2026-05-05 15:40 | 50.05289 | 72.84439 | 18603 ft | 324 kts | 312° |
| 2026-05-05 15:40 | 50.06920 | 72.82043 | 17863 ft | 328 kts | 312° |
| 2026-05-05 15:40 | 50.08571 | 72.79610 | 17407 ft | 327 kts | 312° |
| 2026-05-05 15:41 | 50.10206 | 72.77207 | 17039 ft | 324 kts | 313° |
| 2026-05-05 15:41 | 50.11843 | 72.74800 | 16642 ft | 321 kts | 313° |
| 2026-05-05 15:41 | 50.13504 | 72.72360 | 16241 ft | 319 kts | 313° |
| 2026-05-05 15:41 | 50.15073 | 72.70055 | 15873 ft | 317 kts | 312° |
| 2026-05-05 15:42 | 50.16683 | 72.67678 | 15493 ft | 314 kts | 312° |
| 2026-05-05 15:42 | 50.18286 | 72.65399 | 15111 ft | 314 kts | 317° |
| 2026-05-05 15:42 | 50.20120 | 72.63487 | 14714 ft | 316 kts | 327° |
| 2026-05-05 15:42 | 50.22061 | 72.61906 | 14344 ft | 315 kts | 329° |
| 2026-05-05 15:43 | 50.24004 | 72.60392 | 13969 ft | 313 kts | 329° |
| 2026-05-05 15:43 | 50.25940 | 72.58889 | 13588 ft | 311 kts | 329° |
| 2026-05-05 15:43 | 50.27861 | 72.57390 | 13198 ft | 307 kts | 329° |
| 2026-05-05 15:43 | 50.29758 | 72.55901 | 12722 ft | 307 kts | 329° |
| 2026-05-05 15:44 | 50.31655 | 72.54404 | 12349 ft | 305 kts | 329° |
| 2026-05-05 15:44 | 50.33548 | 72.52908 | 11990 ft | 303 kts | 329° |
| 2026-05-05 15:44 | 50.35432 | 72.51417 | 11629 ft | 301 kts | 329° |
| 2026-05-05 15:44 | 50.37265 | 72.49965 | 11287 ft | 298 kts | 329° |
| 2026-05-05 15:45 | 50.39118 | 72.48496 | 11101 ft | 290 kts | 329° |
| 2026-05-05 15:45 | 50.40874 | 72.47105 | 11096 ft | 283 kts | 329° |
| 2026-05-05 15:45 | 50.42624 | 72.45691 | 11088 ft | 279 kts | 327° |
| 2026-05-05 15:45 | 50.44339 | 72.44285 | 11087 ft | 277 kts | 329° |
| 2026-05-05 15:46 | 50.46055 | 72.42928 | 11090 ft | 276 kts | 329° |
| 2026-05-05 15:46 | 50.47773 | 72.41575 | 11090 ft | 276 kts | 329° |
| 2026-05-05 15:46 | 50.49495 | 72.40215 | 11088 ft | 275 kts | 328° |
| 2026-05-05 15:46 | 50.51203 | 72.38857 | 11081 ft | 275 kts | 328° |
| 2026-05-05 15:47 | 50.52902 | 72.37503 | 11082 ft | 275 kts | 328° |
| 2026-05-05 15:47 | 50.54019 | 72.36610 | 11081 ft | 274 kts | 328° |
| 2026-05-05 15:47 | 50.56308 | 72.34779 | 11081 ft | 274 kts | 327° |
| 2026-05-05 15:47 | 50.57997 | 72.33425 | 11080 ft | 274 kts | 328° |
| 2026-05-05 15:48 | 50.59703 | 72.32058 | 11076 ft | 274 kts | 327° |
| 2026-05-05 15:48 | 50.61418 | 72.30682 | 11075 ft | 274 kts | 327° |
| 2026-05-05 15:48 | 50.63022 | 72.29393 | 11073 ft | 274 kts | 328° |
| 2026-05-05 15:48 | 50.64702 | 72.28041 | 11072 ft | 274 kts | 328° |
| 2026-05-05 15:49 | 50.66404 | 72.26671 | 11069 ft | 274 kts | 328° |
| 2026-05-05 15:49 | 50.68102 | 72.25307 | 11066 ft | 274 kts | 327° |
| 2026-05-05 15:49 | 50.69799 | 72.23939 | 11064 ft | 273 kts | 327° |
| 2026-05-05 15:49 | 50.71488 | 72.22577 | 11063 ft | 273 kts | 327° |
| 2026-05-05 15:50 | 50.73166 | 72.21223 | 11060 ft | 273 kts | 327° |
| 2026-05-05 15:50 | 50.74863 | 72.19854 | 10836 ft | 273 kts | 327° |
| 2026-05-05 15:50 | 50.76595 | 72.18450 | 10195 ft | 284 kts | 327° |
| 2026-05-05 15:50 | 50.78376 | 72.17004 | 9676 ft | 289 kts | 328° |
| 2026-05-05 15:51 | 50.80160 | 72.15562 | 9319 ft | 287 kts | 327° |
| 2026-05-05 15:51 | 50.81926 | 72.14136 | 9012 ft | 284 kts | 327° |
| 2026-05-05 15:51 | 50.83666 | 72.12731 | 8951 ft | 273 kts | 327° |
| 2026-05-05 15:51 | 50.85354 | 72.11366 | 8947 ft | 269 kts | 327° |
| 2026-05-05 15:52 | 50.86997 | 72.10030 | 8949 ft | 266 kts | 327° |
| 2026-05-05 15:52 | 50.88664 | 72.08670 | 8949 ft | 265 kts | 327° |
| 2026-05-05 15:52 | 50.90319 | 72.07321 | 8948 ft | 264 kts | 327° |
| 2026-05-05 15:52 | 50.91930 | 72.06008 | 8946 ft | 264 kts | 327° |
| 2026-05-05 15:53 | 50.93569 | 72.04672 | 8939 ft | 263 kts | 326° |
| 2026-05-05 15:53 | 50.95225 | 72.03319 | 8939 ft | 263 kts | 327° |
| 2026-05-05 15:53 | 50.96845 | 72.01996 | 8759 ft | 263 kts | 327° |
| 2026-05-05 15:53 | 50.98539 | 72.00607 | 8124 ft | 275 kts | 327° |
| 2026-05-05 15:54 | 51.00266 | 71.99188 | 7633 ft | 279 kts | 327° |
| 2026-05-05 15:54 | 51.01962 | 71.97806 | 7435 ft | 272 kts | 327° |
| 2026-05-05 15:54 | 51.03645 | 71.96438 | 7431 ft | 266 kts | 327° |
| 2026-05-05 15:54 | 51.05269 | 71.95110 | 7431 ft | 263 kts | 327° |
| 2026-05-05 15:55 | 51.06889 | 71.93780 | 7214 ft | 262 kts | 327° |
| 2026-05-05 15:55 | 51.08555 | 71.92404 | 7066 ft | 275 kts | 327° |
| 2026-05-05 15:55 | 51.10259 | 71.90997 | 7037 ft | 279 kts | 327° |
| 2026-05-05 15:55 | 51.12002 | 71.89566 | 7005 ft | 279 kts | 327° |
| 2026-05-05 15:56 | 51.13721 | 71.88058 | 6809 ft | 279 kts | 321° |
| 2026-05-05 15:56 | 51.15260 | 71.86133 | 6285 ft | 278 kts | 311° |
| 2026-05-05 15:56 | 51.16626 | 71.83996 | 5957 ft | 274 kts | 309° |
| 2026-05-05 15:56 | 51.17972 | 71.81812 | 5587 ft | 272 kts | 309° |
| 2026-05-05 15:57 | 51.19236 | 71.79760 | 5388 ft | 264 kts | 308° |
| 2026-05-05 15:57 | 51.20200 | 71.77436 | 5235 ft | 242 kts | 280° |
| 2026-05-05 15:57 | 51.20117 | 71.74929 | 5177 ft | 219 kts | 245° |
| 2026-05-05 15:57 | 51.19249 | 71.73016 | 5088 ft | 208 kts | 224° |
| 2026-05-05 15:58 | 51.18200 | 71.71473 | 4909 ft | 206 kts | 225° |
| 2026-05-05 15:58 | 51.17167 | 71.69894 | 4717 ft | 202 kts | 226° |
| 2026-05-05 15:58 | 51.16177 | 71.68356 | 4530 ft | 196 kts | 226° |
| 2026-05-05 15:58 | 51.15204 | 71.66838 | 4276 ft | 194 kts | 226° |
| 2026-05-05 15:59 | 51.14243 | 71.65340 | 4024 ft | 192 kts | 226° |
| 2026-05-05 15:59 | 51.13291 | 71.63858 | 3779 ft | 190 kts | 226° |
| 2026-05-05 15:59 | 51.12344 | 71.62385 | 3535 ft | 187 kts | 226° |
| 2026-05-05 15:59 | 51.11465 | 71.61015 | 3383 ft | 170 kts | 226° |
| 2026-05-05 16:00 | 51.10645 | 71.59739 | 3151 ft | 157 kts | 227° |
| 2026-05-05 16:00 | 51.09895 | 71.58569 | 2916 ft | 146 kts | 226° |
| 2026-05-05 16:00 | 51.09188 | 71.57464 | 2705 ft | 139 kts | 226° |
| 2026-05-05 16:00 | 51.08499 | 71.56385 | 2534 ft | 135 kts | 225° |
| 2026-05-05 16:01 | 51.07836 | 71.55349 | 2354 ft | 131 kts | 225° |
| 2026-05-05 16:01 | 51.07185 | 71.54330 | 2195 ft | 130 kts | 224° |
| 2026-05-05 16:01 | 51.06545 | 71.53330 | 2036 ft | 129 kts | 224° |
| 2026-05-05 16:01 | 51.05900 | 71.52321 | 1869 ft | 129 kts | 223° |
| 2026-05-05 16:02 | 51.05255 | 71.51313 | 1701 ft | 129 kts | 223° |
| 2026-05-05 16:02 | 51.04621 | 71.50322 | 1534 ft | 129 kts | 223° |
| 2026-05-05 16:02 | 51.03976 | 71.49312 | 1358 ft | 129 kts | 223° |
| 2026-05-05 16:02 | 51.03338 | 71.48305 | 1198 ft | 129 kts | 223° |
| 2026-05-05 16:03 | 51.02755 | 71.47399 | 1173 ft | 97 kts | 226° |
| 2026-05-05 16:03 | 51.02388 | 71.46822 | 1173 ft | 61 kts | 224° |
| 2026-05-05 16:03 | 51.02107 | 71.46384 | 1173 ft | 53 kts | 224° |
| 2026-05-05 16:03 | 51.01859 | 71.46001 | 1173 ft | 45 kts | 225° |
| 2026-05-05 16:04 | 51.01699 | 71.45745 | 1173 ft | 19 kts | 235° |
| 2026-05-05 16:04 | 51.01721 | 71.45614 | 1173 ft | 12 kts | 317° |
| 2026-05-05 16:04 | 51.01784 | 71.45516 | 1173 ft | 12 kts | 320° |
| 2026-05-05 16:04 | 51.01862 | 71.45539 | 1173 ft | 13 kts | 45° |
| 2026-05-05 16:05 | 51.01930 | 71.45648 | 1173 ft | 14 kts | 46° |
| 2026-05-05 16:05 | 51.02003 | 71.45762 | 1173 ft | 14 kts | 45° |
| 2026-05-05 16:05 | 51.02079 | 71.45880 | 1173 ft | 15 kts | 45° |
| 2026-05-05 16:05 | 51.02156 | 71.46001 | 1173 ft | 16 kts | 45° |
| 2026-05-05 16:06 | 51.02238 | 71.46128 | 1173 ft | 16 kts | 45° |
| 2026-05-05 16:06 | 51.02317 | 71.46242 | 1173 ft | 13 kts | 25° |
| 2026-05-05 16:06 | 51.02390 | 71.46181 | 1173 ft | 12 kts | 314° |
| 2026-05-05 16:06 | 51.02440 | 71.46100 | 1173 ft | 8 kts | 316° |
| 2026-05-05 16:07 | 51.02483 | 71.46031 | 1173 ft | 9 kts | 314° |
| 2026-05-05 16:07 | 51.02530 | 71.45954 | 1173 ft | 10 kts | 320° |
| 2026-05-05 16:07 | 51.02591 | 71.45959 | 1173 ft | 7 kts | 33° |
| 2026-05-05 16:07 | 51.02624 | 71.45989 | 1173 ft | 1 kts | 28° |
| 2026-05-05 16:08 | 51.02632 | 71.45997 | 1173 ft | 1 kts | 28° |
| 2026-05-05 16:08 | 51.02635 | 71.45999 | 1173 ft | 0 kts | 28° |